sensor_id;sensor_type;location;lat;lon;timestamp;temperature;humidity
2300;DHT22;1158;48.750;9.078;2022-12-16T00:01:06;-3.20;99.90
2300;DHT22;1158;48.750;9.078;2022-12-16T00:03:34;-3.30;99.90
2300;DHT22;1158;48.750;9.078;2022-12-16T00:06:04;-3.20;99.90
2300;DHT22;1158;48.750;9.078;2022-12-16T00:08:32;-3.20;99.90
2300;DHT22;1158;48.750;9.078;2022-12-16T00:11:00;-3.20;99.90
2300;DHT22;1158;48.750;9.078;2022-12-16T00:13:28;-3.20;99.90
2300;DHT22;1158;48.750;9.078;2022-12-16T00:15:56;-3.20;99.90
2300;DHT22;1158;48.750;9.078;2022-12-16T00:18:23;-3.20;99.90
2300;DHT22;1158;48.750;9.078;2022-12-16T00:20:53;-3.20;99.90
2300;DHT22;1158;48.750;9.078;2022-12-16T00:23:20;-3.20;99.90
2300;DHT22;1158;48.750;9.078;2022-12-16T00:25:47;-3.30;99.90
2300;DHT22;1158;48.750;9.078;2022-12-16T00:28:15;-3.30;99.90
2300;DHT22;1158;48.750;9.078;2022-12-16T00:30:43;-3.30;99.90
2300;DHT22;1158;48.750;9.078;2022-12-16T00:33:10;-3.30;99.90
2300;DHT22;1158;48.750;9.078;2022-12-16T00:35:37;-3.30;99.90
2300;DHT22;1158;48.750;9.078;2022-12-16T00:38:05;-3.30;99.90
2300;DHT22;1158;48.750;9.078;2022-12-16T00:40:32;-3.40;99.90
2300;DHT22;1158;48.750;9.078;2022-12-16T00:42:59;-3.30;99.90
2300;DHT22;1158;48.750;9.078;2022-12-16T00:45:26;-3.30;99.90
2300;DHT22;1158;48.750;9.078;2022-12-16T00:47:53;-3.30;99.90
2300;DHT22;1158;48.750;9.078;2022-12-16T00:50:19;-3.30;99.90
2300;DHT22;1158;48.750;9.078;2022-12-16T00:52:47;-3.40;99.90
2300;DHT22;1158;48.750;9.078;2022-12-16T00:55:16;-3.30;99.90
2300;DHT22;1158;48.750;9.078;2022-12-16T00:57:43;-3.40;99.90
2300;DHT22;1158;48.750;9.078;2022-12-16T01:00:12;-3.40;99.90
2300;DHT22;1158;48.750;9.078;2022-12-16T01:02:39;-3.40;99.90
2300;DHT22;1158;48.750;9.078;2022-12-16T01:05:07;-3.50;99.90
2300;DHT22;1158;48.750;9.078;2022-12-16T01:07:34;-3.50;99.90
2300;DHT22;1158;48.750;9.078;2022-12-16T01:10:02;-3.50;99.90
2300;DHT22;1158;48.750;9.078;2022-12-16T01:12:30;-3.40;99.90
2300;DHT22;1158;48.750;9.078;2022-12-16T01:14:58;-3.40;99.90
2300;DHT22;1158;48.750;9.078;2022-12-16T01:17:25;-3.40;99.90
2300;DHT22;1158;48.750;9.078;2022-12-16T01:19:52;-3.40;99.90
2300;DHT22;1158;48.750;9.078;2022-12-16T01:22:20;-3.40;99.90
2300;DHT22;1158;48.750;9.078;2022-12-16T01:24:47;-3.40;99.90
2300;DHT22;1158;48.750;9.078;2022-12-16T01:27:15;-3.40;99.90
2300;DHT22;1158;48.750;9.078;2022-12-16T01:29:43;-3.40;99.90
2300;DHT22;1158;48.750;9.078;2022-12-16T01:32:12;-3.40;99.90
2300;DHT22;1158;48.750;9.078;2022-12-16T01:34:39;-3.40;99.90
2300;DHT22;1158;48.750;9.078;2022-12-16T01:37:06;-3.40;99.90
2300;DHT22;1158;48.750;9.078;2022-12-16T01:39:34;-3.40;99.90
2300;DHT22;1158;48.750;9.078;2022-12-16T01:42:01;-3.40;99.90
2300;DHT22;1158;48.750;9.078;2022-12-16T01:44:28;-3.40;99.90
2300;DHT22;1158;48.750;9.078;2022-12-16T01:46:59;-3.30;99.90
2300;DHT22;1158;48.750;9.078;2022-12-16T01:49:33;-3.30;99.90
2300;DHT22;1158;48.750;9.078;2022-12-16T01:52:04;-3.40;99.90
2300;DHT22;1158;48.750;9.078;2022-12-16T01:54:35;-3.40;99.90
2300;DHT22;1158;48.750;9.078;2022-12-16T01:57:07;-3.40;99.90
2300;DHT22;1158;48.750;9.078;2022-12-16T01:59:36;-3.40;99.90
2300;DHT22;1158;48.750;9.078;2022-12-16T02:02:06;-3.40;99.90
2300;DHT22;1158;48.750;9.078;2022-12-16T02:04:33;-3.40;99.90
2300;DHT22;1158;48.750;9.078;2022-12-16T02:07:00;-3.50;99.90
2300;DHT22;1158;48.750;9.078;2022-12-16T02:09:27;-3.40;99.90
2300;DHT22;1158;48.750;9.078;2022-12-16T02:12:06;-3.40;99.90
2300;DHT22;1158;48.750;9.078;2022-12-16T02:14:57;-3.40;99.90
2300;DHT22;1158;48.750;9.078;2022-12-16T02:17:37;-3.40;99.90
2300;DHT22;1158;48.750;9.078;2022-12-16T02:26:10;-3.30;99.90
2300;DHT22;1158;48.750;9.078;2022-12-16T02:29:10;-3.30;99.90
2300;DHT22;1158;48.750;9.078;2022-12-16T02:31:47;-3.40;99.90
2300;DHT22;1158;48.750;9.078;2022-12-16T02:34:22;-3.30;99.90
2300;DHT22;1158;48.750;9.078;2022-12-16T02:37:00;-3.40;99.90
2300;DHT22;1158;48.750;9.078;2022-12-16T02:39:35;-3.40;99.90
2300;DHT22;1158;48.750;9.078;2022-12-16T02:42:08;-3.40;99.90
2300;DHT22;1158;48.750;9.078;2022-12-16T02:44:42;-3.40;99.90
2300;DHT22;1158;48.750;9.078;2022-12-16T02:47:12;-3.40;99.90
2300;DHT22;1158;48.750;9.078;2022-12-16T02:49:48;-3.40;99.90
2300;DHT22;1158;48.750;9.078;2022-12-16T02:52:18;-3.40;99.90
2300;DHT22;1158;48.750;9.078;2022-12-16T02:54:45;-3.40;99.90
2300;DHT22;1158;48.750;9.078;2022-12-16T02:57:30;-3.40;99.90
2300;DHT22;1158;48.750;9.078;2022-12-16T03:00:03;-3.40;99.90
2300;DHT22;1158;48.750;9.078;2022-12-16T03:02:37;-3.40;99.90
2300;DHT22;1158;48.750;9.078;2022-12-16T03:05:09;-3.40;99.90
2300;DHT22;1158;48.750;9.078;2022-12-16T03:07:41;-3.40;99.90
2300;DHT22;1158;48.750;9.078;2022-12-16T03:10:11;-3.40;99.90
2300;DHT22;1158;48.750;9.078;2022-12-16T03:12:41;-3.40;99.90
2300;DHT22;1158;48.750;9.078;2022-12-16T03:15:11;-3.40;99.90
2300;DHT22;1158;48.750;9.078;2022-12-16T03:17:40;-3.40;99.90
2300;DHT22;1158;48.750;9.078;2022-12-16T03:20:11;-3.40;99.90
2300;DHT22;1158;48.750;9.078;2022-12-16T03:22:43;-3.40;99.90
2300;DHT22;1158;48.750;9.078;2022-12-16T03:25:12;-3.40;99.90
2300;DHT22;1158;48.750;9.078;2022-12-16T03:27:44;-3.40;99.90
2300;DHT22;1158;48.750;9.078;2022-12-16T03:30:16;-3.40;99.90
2300;DHT22;1158;48.750;9.078;2022-12-16T03:32:52;-3.40;99.90
2300;DHT22;1158;48.750;9.078;2022-12-16T03:35:25;-3.30;99.90
2300;DHT22;1158;48.750;9.078;2022-12-16T03:37:56;-3.30;99.90
2300;DHT22;1158;48.750;9.078;2022-12-16T03:40:24;-3.30;99.90
2300;DHT22;1158;48.750;9.078;2022-12-16T03:42:53;-3.30;99.90
2300;DHT22;1158;48.750;9.078;2022-12-16T03:45:23;-3.30;99.90
2300;DHT22;1158;48.750;9.078;2022-12-16T03:47:56;-3.30;99.90
2300;DHT22;1158;48.750;9.078;2022-12-16T03:50:25;-3.40;99.90
2300;DHT22;1158;48.750;9.078;2022-12-16T03:52:52;-3.40;99.90
2300;DHT22;1158;48.750;9.078;2022-12-16T03:55:19;-3.40;99.90
2300;DHT22;1158;48.750;9.078;2022-12-16T03:57:46;-3.40;99.90
2300;DHT22;1158;48.750;9.078;2022-12-16T04:00:13;-3.40;99.90
2300;DHT22;1158;48.750;9.078;2022-12-16T04:02:41;-3.40;99.90
2300;DHT22;1158;48.750;9.078;2022-12-16T04:05:09;-3.40;99.90
2300;DHT22;1158;48.750;9.078;2022-12-16T04:07:36;-3.40;99.90
2300;DHT22;1158;48.750;9.078;2022-12-16T04:10:04;-3.40;99.90
2300;DHT22;1158;48.750;9.078;2022-12-16T04:12:31;-3.40;99.90
2300;DHT22;1158;48.750;9.078;2022-12-16T04:15:15;-3.40;99.90
2300;DHT22;1158;48.750;9.078;2022-12-16T04:17:59;-3.40;99.90
2300;DHT22;1158;48.750;9.078;2022-12-16T04:20:55;-3.40;99.90
2300;DHT22;1158;48.750;9.078;2022-12-16T04:23:45;-3.40;99.90
2300;DHT22;1158;48.750;9.078;2022-12-16T04:26:30;-3.40;99.90
2300;DHT22;1158;48.750;9.078;2022-12-16T04:29:17;-3.40;99.90
2300;DHT22;1158;48.750;9.078;2022-12-16T04:31:43;-3.40;99.90
2300;DHT22;1158;48.750;9.078;2022-12-16T04:34:10;-3.40;99.90
2300;DHT22;1158;48.750;9.078;2022-12-16T04:36:53;-3.50;99.90
2300;DHT22;1158;48.750;9.078;2022-12-16T04:39:37;-3.50;99.90
2300;DHT22;1158;48.750;9.078;2022-12-16T04:42:22;-3.50;99.90
2300;DHT22;1158;48.750;9.078;2022-12-16T04:45:21;-3.50;99.90
2300;DHT22;1158;48.750;9.078;2022-12-16T04:48:05;-3.50;99.90
2300;DHT22;1158;48.750;9.078;2022-12-16T04:50:49;-3.60;99.90
2300;DHT22;1158;48.750;9.078;2022-12-16T04:53:35;-3.50;99.90
2300;DHT22;1158;48.750;9.078;2022-12-16T04:56:19;-3.50;99.90
2300;DHT22;1158;48.750;9.078;2022-12-16T04:59:03;-3.40;99.90
2300;DHT22;1158;48.750;9.078;2022-12-16T05:01:48;-3.40;99.90
2300;DHT22;1158;48.750;9.078;2022-12-16T05:04:32;-3.40;99.90
2300;DHT22;1158;48.750;9.078;2022-12-16T05:07:16;-3.40;99.90
2300;DHT22;1158;48.750;9.078;2022-12-16T05:10:02;-3.40;99.90
2300;DHT22;1158;48.750;9.078;2022-12-16T05:12:46;-3.50;99.90
2300;DHT22;1158;48.750;9.078;2022-12-16T05:15:30;-3.50;99.90
2300;DHT22;1158;48.750;9.078;2022-12-16T05:18:12;-3.50;99.90
2300;DHT22;1158;48.750;9.078;2022-12-16T05:20:56;-3.40;99.90
2300;DHT22;1158;48.750;9.078;2022-12-16T05:23:40;-3.40;99.90
2300;DHT22;1158;48.750;9.078;2022-12-16T05:26:26;-3.40;99.90
2300;DHT22;1158;48.750;9.078;2022-12-16T05:29:12;-3.40;99.90
2300;DHT22;1158;48.750;9.078;2022-12-16T05:31:57;-3.40;99.90
2300;DHT22;1158;48.750;9.078;2022-12-16T05:34:41;-3.40;99.90
2300;DHT22;1158;48.750;9.078;2022-12-16T05:37:25;-3.40;99.90
2300;DHT22;1158;48.750;9.078;2022-12-16T05:40:10;-3.40;99.90
2300;DHT22;1158;48.750;9.078;2022-12-16T05:42:55;-3.40;99.90
2300;DHT22;1158;48.750;9.078;2022-12-16T05:45:40;-3.40;99.90
2300;DHT22;1158;48.750;9.078;2022-12-16T05:48:24;-3.40;99.90
2300;DHT22;1158;48.750;9.078;2022-12-16T05:51:09;-3.40;99.90
2300;DHT22;1158;48.750;9.078;2022-12-16T05:53:53;-3.40;99.90
2300;DHT22;1158;48.750;9.078;2022-12-16T05:56:37;-3.40;99.90
2300;DHT22;1158;48.750;9.078;2022-12-16T05:59:23;-3.40;99.90
2300;DHT22;1158;48.750;9.078;2022-12-16T06:02:06;-3.40;99.90
2300;DHT22;1158;48.750;9.078;2022-12-16T06:04:47;-3.40;99.90
2300;DHT22;1158;48.750;9.078;2022-12-16T06:07:31;-3.50;99.90
2300;DHT22;1158;48.750;9.078;2022-12-16T06:10:16;-3.40;99.90
2300;DHT22;1158;48.750;9.078;2022-12-16T06:13:00;-3.40;99.90
2300;DHT22;1158;48.750;9.078;2022-12-16T06:15:46;-3.40;99.90
2300;DHT22;1158;48.750;9.078;2022-12-16T06:18:30;-3.40;99.90
2300;DHT22;1158;48.750;9.078;2022-12-16T06:21:14;-3.40;99.90
2300;DHT22;1158;48.750;9.078;2022-12-16T06:23:58;-3.50;99.90
2300;DHT22;1158;48.750;9.078;2022-12-16T06:26:45;-3.40;99.90
2300;DHT22;1158;48.750;9.078;2022-12-16T06:29:29;-3.40;99.90
2300;DHT22;1158;48.750;9.078;2022-12-16T06:32:15;-3.50;99.90
2300;DHT22;1158;48.750;9.078;2022-12-16T06:34:59;-3.50;99.90
2300;DHT22;1158;48.750;9.078;2022-12-16T06:37:46;-3.50;99.90
2300;DHT22;1158;48.750;9.078;2022-12-16T06:40:31;-3.40;99.90
2300;DHT22;1158;48.750;9.078;2022-12-16T06:43:15;-3.40;99.90
2300;DHT22;1158;48.750;9.078;2022-12-16T06:46:00;-3.40;99.90
2300;DHT22;1158;48.750;9.078;2022-12-16T06:48:45;-3.40;99.90
2300;DHT22;1158;48.750;9.078;2022-12-16T06:51:29;-3.50;99.90
2300;DHT22;1158;48.750;9.078;2022-12-16T06:54:13;-3.40;99.90
2300;DHT22;1158;48.750;9.078;2022-12-16T06:56:58;-3.40;99.90
2300;DHT22;1158;48.750;9.078;2022-12-16T06:59:56;-3.40;99.90
2300;DHT22;1158;48.750;9.078;2022-12-16T07:02:41;-3.40;99.90
2300;DHT22;1158;48.750;9.078;2022-12-16T07:05:26;-3.40;99.90
2300;DHT22;1158;48.750;9.078;2022-12-16T07:08:11;-3.40;99.90
2300;DHT22;1158;48.750;9.078;2022-12-16T07:10:55;-3.30;99.90
2300;DHT22;1158;48.750;9.078;2022-12-16T07:13:39;-3.40;99.90
2300;DHT22;1158;48.750;9.078;2022-12-16T07:16:23;-3.30;99.90
2300;DHT22;1158;48.750;9.078;2022-12-16T07:19:07;-3.30;99.90
2300;DHT22;1158;48.750;9.078;2022-12-16T07:21:53;-3.40;99.90
2300;DHT22;1158;48.750;9.078;2022-12-16T07:24:37;-3.40;99.90
2300;DHT22;1158;48.750;9.078;2022-12-16T07:27:21;-3.40;99.90
2300;DHT22;1158;48.750;9.078;2022-12-16T07:30:07;-3.30;99.90
2300;DHT22;1158;48.750;9.078;2022-12-16T07:32:51;-3.30;99.90
2300;DHT22;1158;48.750;9.078;2022-12-16T07:35:35;-3.30;99.90
2300;DHT22;1158;48.750;9.078;2022-12-16T07:38:21;-3.30;99.90
2300;DHT22;1158;48.750;9.078;2022-12-16T07:41:05;-3.30;99.90
2300;DHT22;1158;48.750;9.078;2022-12-16T07:43:50;-3.30;99.90
2300;DHT22;1158;48.750;9.078;2022-12-16T07:46:34;-3.20;99.90
2300;DHT22;1158;48.750;9.078;2022-12-16T07:49:18;-3.30;99.90
2300;DHT22;1158;48.750;9.078;2022-12-16T07:52:02;-3.20;99.90
2300;DHT22;1158;48.750;9.078;2022-12-16T07:54:47;-3.20;99.90
2300;DHT22;1158;48.750;9.078;2022-12-16T07:57:31;-3.10;99.90
2300;DHT22;1158;48.750;9.078;2022-12-16T08:00:16;-3.10;99.90
2300;DHT22;1158;48.750;9.078;2022-12-16T08:03:15;-3.00;99.90
2300;DHT22;1158;48.750;9.078;2022-12-16T08:05:59;-3.00;99.90
2300;DHT22;1158;48.750;9.078;2022-12-16T08:08:43;-3.00;99.90
2300;DHT22;1158;48.750;9.078;2022-12-16T08:11:29;-2.90;99.90
2300;DHT22;1158;48.750;9.078;2022-12-16T08:14:13;-2.90;99.90
2300;DHT22;1158;48.750;9.078;2022-12-16T08:16:57;-2.80;99.90
2300;DHT22;1158;48.750;9.078;2022-12-16T08:19:42;-2.70;99.90
2300;DHT22;1158;48.750;9.078;2022-12-16T08:22:26;-2.60;99.90
2300;DHT22;1158;48.750;9.078;2022-12-16T08:25:10;-2.60;99.90
2300;DHT22;1158;48.750;9.078;2022-12-16T08:27:55;-2.50;99.90
2300;DHT22;1158;48.750;9.078;2022-12-16T08:30:39;-2.40;99.90
2300;DHT22;1158;48.750;9.078;2022-12-16T08:33:23;-2.40;99.90
2300;DHT22;1158;48.750;9.078;2022-12-16T08:36:07;-2.40;99.90
2300;DHT22;1158;48.750;9.078;2022-12-16T08:38:52;-2.40;99.90
2300;DHT22;1158;48.750;9.078;2022-12-16T08:41:36;-2.40;99.90
2300;DHT22;1158;48.750;9.078;2022-12-16T08:44:22;-2.40;99.90
2300;DHT22;1158;48.750;9.078;2022-12-16T08:47:08;-2.50;99.90
2300;DHT22;1158;48.750;9.078;2022-12-16T08:49:53;-2.50;99.90
2300;DHT22;1158;48.750;9.078;2022-12-16T08:52:37;-2.50;99.90
2300;DHT22;1158;48.750;9.078;2022-12-16T08:55:21;-2.50;99.90
2300;DHT22;1158;48.750;9.078;2022-12-16T08:58:05;-2.50;99.90
2300;DHT22;1158;48.750;9.078;2022-12-16T09:00:51;-2.50;99.90
2300;DHT22;1158;48.750;9.078;2022-12-16T09:03:35;-2.40;99.90
2300;DHT22;1158;48.750;9.078;2022-12-16T09:06:19;-2.30;99.90
2300;DHT22;1158;48.750;9.078;2022-12-16T09:09:04;-2.30;99.90
2300;DHT22;1158;48.750;9.078;2022-12-16T09:11:48;-2.20;99.90
2300;DHT22;1158;48.750;9.078;2022-12-16T09:14:32;-2.20;99.90
2300;DHT22;1158;48.750;9.078;2022-12-16T09:17:29;-2.10;99.90
2300;DHT22;1158;48.750;9.078;2022-12-16T09:20:13;-2.00;99.90
2300;DHT22;1158;48.750;9.078;2022-12-16T09:23:00;-1.90;99.90
2300;DHT22;1158;48.750;9.078;2022-12-16T09:25:44;-1.80;99.90
2300;DHT22;1158;48.750;9.078;2022-12-16T09:28:29;-1.80;99.90
2300;DHT22;1158;48.750;9.078;2022-12-16T09:31:13;-1.70;99.90
2300;DHT22;1158;48.750;9.078;2022-12-16T09:33:58;-1.60;99.90
2300;DHT22;1158;48.750;9.078;2022-12-16T09:36:43;-1.60;99.90
2300;DHT22;1158;48.750;9.078;2022-12-16T09:39:27;-1.70;99.90
2300;DHT22;1158;48.750;9.078;2022-12-16T09:42:21;-1.80;99.90
2300;DHT22;1158;48.750;9.078;2022-12-16T09:45:12;-2.00;99.90
2300;DHT22;1158;48.750;9.078;2022-12-16T09:48:05;-1.90;99.90
2300;DHT22;1158;48.750;9.078;2022-12-16T09:50:57;-2.00;99.90
2300;DHT22;1158;48.750;9.078;2022-12-16T09:53:48;-1.90;99.90
2300;DHT22;1158;48.750;9.078;2022-12-16T09:56:34;-1.80;99.90
2300;DHT22;1158;48.750;9.078;2022-12-16T09:59:23;-1.80;99.90
2300;DHT22;1158;48.750;9.078;2022-12-16T10:02:10;-1.80;99.90
2300;DHT22;1158;48.750;9.078;2022-12-16T10:04:55;-2.00;99.90
2300;DHT22;1158;48.750;9.078;2022-12-16T10:07:47;-2.00;99.90
2300;DHT22;1158;48.750;9.078;2022-12-16T10:10:39;-2.10;99.90
2300;DHT22;1158;48.750;9.078;2022-12-16T10:13:30;-1.90;99.90
2300;DHT22;1158;48.750;9.078;2022-12-16T10:16:22;-1.90;99.90
2300;DHT22;1158;48.750;9.078;2022-12-16T10:19:16;-1.70;99.90
2300;DHT22;1158;48.750;9.078;2022-12-16T10:22:10;-1.70;99.90
2300;DHT22;1158;48.750;9.078;2022-12-16T10:25:02;-1.60;99.90
2300;DHT22;1158;48.750;9.078;2022-12-16T10:27:54;-1.60;99.90
2300;DHT22;1158;48.750;9.078;2022-12-16T10:30:41;-1.70;99.90
2300;DHT22;1158;48.750;9.078;2022-12-16T10:33:28;-1.60;99.90
2300;DHT22;1158;48.750;9.078;2022-12-16T10:36:15;-1.60;99.90
2300;DHT22;1158;48.750;9.078;2022-12-16T10:39:03;-1.60;99.90
2300;DHT22;1158;48.750;9.078;2022-12-16T10:41:51;-1.50;99.90
2300;DHT22;1158;48.750;9.078;2022-12-16T10:44:45;-1.80;99.90
2300;DHT22;1158;48.750;9.078;2022-12-16T10:47:30;-1.80;99.90
2300;DHT22;1158;48.750;9.078;2022-12-16T10:50:15;-1.60;99.90
2300;DHT22;1158;48.750;9.078;2022-12-16T10:53:13;-1.60;99.90
2300;DHT22;1158;48.750;9.078;2022-12-16T10:56:13;-1.50;99.90
2300;DHT22;1158;48.750;9.078;2022-12-16T10:59:04;-1.20;99.90
2300;DHT22;1158;48.750;9.078;2022-12-16T11:01:55;-1.00;99.90
2300;DHT22;1158;48.750;9.078;2022-12-16T11:04:40;-0.70;99.90
2300;DHT22;1158;48.750;9.078;2022-12-16T11:07:27;-0.80;99.90
2300;DHT22;1158;48.750;9.078;2022-12-16T11:10:32;-1.00;99.90
2300;DHT22;1158;48.750;9.078;2022-12-16T11:13:19;-0.80;99.90
2300;DHT22;1158;48.750;9.078;2022-12-16T11:16:12;-0.80;99.90
2300;DHT22;1158;48.750;9.078;2022-12-16T11:18:57;-0.70;99.90
2300;DHT22;1158;48.750;9.078;2022-12-16T11:21:42;-0.60;99.90
2300;DHT22;1158;48.750;9.078;2022-12-16T11:24:27;-0.70;99.90
2300;DHT22;1158;48.750;9.078;2022-12-16T11:27:14;-0.70;99.90
2300;DHT22;1158;48.750;9.078;2022-12-16T11:30:02;-0.90;99.90
2300;DHT22;1158;48.750;9.078;2022-12-16T11:32:50;-0.70;99.90
2300;DHT22;1158;48.750;9.078;2022-12-16T11:35:38;-0.50;99.90
2300;DHT22;1158;48.750;9.078;2022-12-16T11:38:31;-0.60;99.90
2300;DHT22;1158;48.750;9.078;2022-12-16T11:41:26;-0.40;99.90
2300;DHT22;1158;48.750;9.078;2022-12-16T11:44:29;-0.10;99.90
2300;DHT22;1158;48.750;9.078;2022-12-16T11:47:29;0.10;99.90
2300;DHT22;1158;48.750;9.078;2022-12-16T11:50:20;0.10;99.90
2300;DHT22;1158;48.750;9.078;2022-12-16T11:53:19;0.20;99.90
2300;DHT22;1158;48.750;9.078;2022-12-16T11:56:09;0.20;99.90
2300;DHT22;1158;48.750;9.078;2022-12-16T11:59:03;0.30;99.90
2300;DHT22;1158;48.750;9.078;2022-12-16T12:01:52;0.30;99.90
2300;DHT22;1158;48.750;9.078;2022-12-16T12:04:38;0.30;99.90
2300;DHT22;1158;48.750;9.078;2022-12-16T12:07:28;0.30;99.90
2300;DHT22;1158;48.750;9.078;2022-12-16T12:10:45;0.10;99.90
2300;DHT22;1158;48.750;9.078;2022-12-16T12:13:50;0.10;99.90
2300;DHT22;1158;48.750;9.078;2022-12-16T12:16:45;0.30;99.90
2300;DHT22;1158;48.750;9.078;2022-12-16T12:19:39;-0.10;99.90
2300;DHT22;1158;48.750;9.078;2022-12-16T12:22:32;-0.30;99.90
2300;DHT22;1158;48.750;9.078;2022-12-16T12:25:24;-0.20;99.90
2300;DHT22;1158;48.750;9.078;2022-12-16T12:28:19;-0.30;99.90
2300;DHT22;1158;48.750;9.078;2022-12-16T12:31:13;-0.10;99.90
2300;DHT22;1158;48.750;9.078;2022-12-16T12:34:04;-0.20;99.90
2300;DHT22;1158;48.750;9.078;2022-12-16T12:36:53;-0.40;99.90
2300;DHT22;1158;48.750;9.078;2022-12-16T12:39:46;-0.40;99.90
2300;DHT22;1158;48.750;9.078;2022-12-16T12:42:34;-0.60;99.90
2300;DHT22;1158;48.750;9.078;2022-12-16T12:45:36;-0.70;99.90
2300;DHT22;1158;48.750;9.078;2022-12-16T12:48:29;-0.50;99.90
2300;DHT22;1158;48.750;9.078;2022-12-16T12:51:20;-0.60;99.90
2300;DHT22;1158;48.750;9.078;2022-12-16T12:54:12;-0.70;99.90
2300;DHT22;1158;48.750;9.078;2022-12-16T12:56:59;-0.80;99.90
2300;DHT22;1158;48.750;9.078;2022-12-16T12:59:50;-0.70;99.90
2300;DHT22;1158;48.750;9.078;2022-12-16T13:02:43;-0.80;99.90
2300;DHT22;1158;48.750;9.078;2022-12-16T13:05:30;-0.70;99.90
2300;DHT22;1158;48.750;9.078;2022-12-16T13:08:42;-0.60;99.90
2300;DHT22;1158;48.750;9.078;2022-12-16T13:11:27;-0.50;99.90
2300;DHT22;1158;48.750;9.078;2022-12-16T13:18:20;-0.80;99.90
2300;DHT22;1158;48.750;9.078;2022-12-16T13:24:45;1.60;99.90
2300;DHT22;1158;48.750;9.078;2022-12-16T13:27:51;0.40;99.90
2300;DHT22;1158;48.750;9.078;2022-12-16T13:30:37;-0.10;99.90
2300;DHT22;1158;48.750;9.078;2022-12-16T13:33:28;-0.60;99.90
2300;DHT22;1158;48.750;9.078;2022-12-16T13:36:14;-0.70;99.90
2300;DHT22;1158;48.750;9.078;2022-12-16T13:39:10;-1.00;99.90
2300;DHT22;1158;48.750;9.078;2022-12-16T13:42:03;-0.90;99.90
2300;DHT22;1158;48.750;9.078;2022-12-16T13:44:55;-0.80;99.90
2300;DHT22;1158;48.750;9.078;2022-12-16T13:48:03;-0.90;99.90
2300;DHT22;1158;48.750;9.078;2022-12-16T13:50:50;-0.80;99.90
2300;DHT22;1158;48.750;9.078;2022-12-16T13:53:39;-1.00;99.90
2300;DHT22;1158;48.750;9.078;2022-12-16T13:56:29;-1.20;99.90
2300;DHT22;1158;48.750;9.078;2022-12-16T13:59:16;-1.30;99.90
2300;DHT22;1158;48.750;9.078;2022-12-16T14:02:20;-1.40;99.90
2300;DHT22;1158;48.750;9.078;2022-12-16T14:05:15;-1.40;99.90
2300;DHT22;1158;48.750;9.078;2022-12-16T14:08:02;-1.50;99.90
2300;DHT22;1158;48.750;9.078;2022-12-16T14:10:55;-1.60;99.90
2300;DHT22;1158;48.750;9.078;2022-12-16T14:13:42;-1.70;99.90
2300;DHT22;1158;48.750;9.078;2022-12-16T14:16:38;-1.70;99.90
2300;DHT22;1158;48.750;9.078;2022-12-16T14:19:30;-1.70;99.90
2300;DHT22;1158;48.750;9.078;2022-12-16T14:22:41;-1.80;99.90
2300;DHT22;1158;48.750;9.078;2022-12-16T14:25:32;-1.80;99.90
2300;DHT22;1158;48.750;9.078;2022-12-16T14:28:24;-1.70;99.90
2300;DHT22;1158;48.750;9.078;2022-12-16T14:31:14;-1.60;99.90
2300;DHT22;1158;48.750;9.078;2022-12-16T14:34:01;-1.70;99.90
2300;DHT22;1158;48.750;9.078;2022-12-16T14:36:46;-1.70;99.90
2300;DHT22;1158;48.750;9.078;2022-12-16T14:39:36;-1.80;99.90
2300;DHT22;1158;48.750;9.078;2022-12-16T14:42:25;-1.90;99.90
2300;DHT22;1158;48.750;9.078;2022-12-16T14:45:21;-1.90;99.90
2300;DHT22;1158;48.750;9.078;2022-12-16T14:48:14;-2.10;99.90
2300;DHT22;1158;48.750;9.078;2022-12-16T14:51:20;-2.10;99.90
2300;DHT22;1158;48.750;9.078;2022-12-16T14:54:24;-2.10;99.90
2300;DHT22;1158;48.750;9.078;2022-12-16T14:57:12;-2.20;99.90
2300;DHT22;1158;48.750;9.078;2022-12-16T15:00:12;-2.20;99.90
2300;DHT22;1158;48.750;9.078;2022-12-16T15:02:58;-2.30;99.90
2300;DHT22;1158;48.750;9.078;2022-12-16T15:05:44;-2.30;99.90
2300;DHT22;1158;48.750;9.078;2022-12-16T15:08:32;-2.40;99.90
2300;DHT22;1158;48.750;9.078;2022-12-16T15:11:20;-2.40;99.90
2300;DHT22;1158;48.750;9.078;2022-12-16T15:14:09;-2.40;99.90
2300;DHT22;1158;48.750;9.078;2022-12-16T15:16:56;-2.50;99.90
2300;DHT22;1158;48.750;9.078;2022-12-16T15:19:44;-2.50;99.90
2300;DHT22;1158;48.750;9.078;2022-12-16T15:22:29;-2.60;99.90
2300;DHT22;1158;48.750;9.078;2022-12-16T15:25:19;-2.70;99.90
2300;DHT22;1158;48.750;9.078;2022-12-16T15:28:04;-2.70;99.90
2300;DHT22;1158;48.750;9.078;2022-12-16T15:30:48;-2.80;99.90
2300;DHT22;1158;48.750;9.078;2022-12-16T15:33:35;-2.90;99.90
2300;DHT22;1158;48.750;9.078;2022-12-16T15:36:25;-2.90;99.90
2300;DHT22;1158;48.750;9.078;2022-12-16T15:39:22;-3.00;99.90
2300;DHT22;1158;48.750;9.078;2022-12-16T15:42:18;-3.00;99.90
2300;DHT22;1158;48.750;9.078;2022-12-16T15:45:04;-3.00;99.90
2300;DHT22;1158;48.750;9.078;2022-12-16T15:47:49;-3.00;99.90
2300;DHT22;1158;48.750;9.078;2022-12-16T15:50:51;-3.00;99.90
2300;DHT22;1158;48.750;9.078;2022-12-16T15:53:37;-3.00;99.90
2300;DHT22;1158;48.750;9.078;2022-12-16T15:56:24;-3.00;99.90
2300;DHT22;1158;48.750;9.078;2022-12-16T15:59:21;-3.00;99.90
2300;DHT22;1158;48.750;9.078;2022-12-16T16:02:12;-3.00;99.90
2300;DHT22;1158;48.750;9.078;2022-12-16T16:04:58;-2.80;99.90
2300;DHT22;1158;48.750;9.078;2022-12-16T16:07:44;-2.80;99.90
2300;DHT22;1158;48.750;9.078;2022-12-16T16:10:28;-2.90;99.90
2300;DHT22;1158;48.750;9.078;2022-12-16T16:13:13;-2.90;99.90
2300;DHT22;1158;48.750;9.078;2022-12-16T16:15:57;-3.00;99.90
2300;DHT22;1158;48.750;9.078;2022-12-16T16:18:42;-3.00;99.90
2300;DHT22;1158;48.750;9.078;2022-12-16T16:21:27;-3.00;99.90
2300;DHT22;1158;48.750;9.078;2022-12-16T16:24:12;-3.00;99.90
2300;DHT22;1158;48.750;9.078;2022-12-16T16:26:59;-3.10;99.90
2300;DHT22;1158;48.750;9.078;2022-12-16T16:29:44;-3.00;99.90
2300;DHT22;1158;48.750;9.078;2022-12-16T16:32:28;-3.00;99.90
2300;DHT22;1158;48.750;9.078;2022-12-16T16:35:12;-3.10;99.90
2300;DHT22;1158;48.750;9.078;2022-12-16T16:37:57;-3.00;99.90
2300;DHT22;1158;48.750;9.078;2022-12-16T16:40:43;-3.00;99.90
2300;DHT22;1158;48.750;9.078;2022-12-16T16:43:30;-3.00;99.90
2300;DHT22;1158;48.750;9.078;2022-12-16T16:46:28;-3.00;99.90
2300;DHT22;1158;48.750;9.078;2022-12-16T16:49:19;-3.00;99.90
2300;DHT22;1158;48.750;9.078;2022-12-16T16:52:03;-3.10;99.90
2300;DHT22;1158;48.750;9.078;2022-12-16T16:54:48;-3.10;99.90
2300;DHT22;1158;48.750;9.078;2022-12-16T16:57:36;-3.10;99.90
2300;DHT22;1158;48.750;9.078;2022-12-16T17:00:20;-3.10;99.90
2300;DHT22;1158;48.750;9.078;2022-12-16T17:03:05;-3.10;99.90
2300;DHT22;1158;48.750;9.078;2022-12-16T17:05:49;-3.10;99.90
2300;DHT22;1158;48.750;9.078;2022-12-16T17:08:33;-3.00;99.90
2300;DHT22;1158;48.750;9.078;2022-12-16T17:11:19;-3.00;99.90
2300;DHT22;1158;48.750;9.078;2022-12-16T17:14:07;-3.10;99.90
2300;DHT22;1158;48.750;9.078;2022-12-16T17:16:53;-3.10;99.90
2300;DHT22;1158;48.750;9.078;2022-12-16T17:19:37;-3.10;99.90
2300;DHT22;1158;48.750;9.078;2022-12-16T17:22:21;-3.10;99.90
2300;DHT22;1158;48.750;9.078;2022-12-16T17:25:06;-3.10;99.90
2300;DHT22;1158;48.750;9.078;2022-12-16T17:27:51;-3.10;99.90
2300;DHT22;1158;48.750;9.078;2022-12-16T17:30:37;-3.20;99.90
2300;DHT22;1158;48.750;9.078;2022-12-16T17:33:21;-3.20;99.90
2300;DHT22;1158;48.750;9.078;2022-12-16T17:36:07;-3.20;99.90
2300;DHT22;1158;48.750;9.078;2022-12-16T17:38:53;-3.20;99.90
2300;DHT22;1158;48.750;9.078;2022-12-16T17:41:37;-3.10;99.90
2300;DHT22;1158;48.750;9.078;2022-12-16T17:44:22;-3.20;99.90
2300;DHT22;1158;48.750;9.078;2022-12-16T17:47:08;-3.20;99.90
2300;DHT22;1158;48.750;9.078;2022-12-16T17:49:52;-3.20;99.90
2300;DHT22;1158;48.750;9.078;2022-12-16T17:52:51;-3.20;99.90
2300;DHT22;1158;48.750;9.078;2022-12-16T17:55:35;-3.20;99.90
2300;DHT22;1158;48.750;9.078;2022-12-16T17:58:16;-3.20;99.90
2300;DHT22;1158;48.750;9.078;2022-12-16T18:01:01;-3.20;99.90